sensor_id;sensor_type;location;lat;lon;timestamp;P1;durP1;ratioP1;P2;durP2;ratioP2
10823;SDS011;39116;59.332;18.034;2023-04-03T00:01:17;9.10;;;1.97;;
10823;SDS011;39116;59.332;18.034;2023-04-03T00:03:39;7.03;;;2.10;;
10823;SDS011;39116;59.332;18.034;2023-04-03T00:06:04;11.17;;;2.07;;
10823;SDS011;39116;59.332;18.034;2023-04-03T00:08:26;6.77;;;1.80;;
10823;SDS011;39116;59.332;18.034;2023-04-03T00:10:50;10.60;;;2.27;;
10823;SDS011;39116;59.332;18.034;2023-04-03T00:13:13;7.63;;;1.80;;
10823;SDS011;39116;59.332;18.034;2023-04-03T00:15:36;6.83;;;1.73;;
10823;SDS011;39116;59.332;18.034;2023-04-03T00:17:58;6.03;;;1.80;;
10823;SDS011;39116;59.332;18.034;2023-04-03T00:20:20;7.83;;;1.90;;
10823;SDS011;39116;59.332;18.034;2023-04-03T00:22:43;9.43;;;2.10;;
10823;SDS011;39116;59.332;18.034;2023-04-03T00:25:06;6.23;;;1.80;;
10823;SDS011;39116;59.332;18.034;2023-04-03T00:27:29;5.63;;;1.43;;
10823;SDS011;39116;59.332;18.034;2023-04-03T00:29:51;6.80;;;1.93;;
10823;SDS011;39116;59.332;18.034;2023-04-03T00:32:13;6.37;;;1.80;;
10823;SDS011;39116;59.332;18.034;2023-04-03T00:34:35;7.47;;;1.57;;
10823;SDS011;39116;59.332;18.034;2023-04-03T00:36:57;9.17;;;2.20;;
10823;SDS011;39116;59.332;18.034;2023-04-03T00:39:20;11.27;;;2.20;;
10823;SDS011;39116;59.332;18.034;2023-04-03T00:41:42;6.47;;;2.03;;
10823;SDS011;39116;59.332;18.034;2023-04-03T00:44:18;10.43;;;2.23;;
10823;SDS011;39116;59.332;18.034;2023-04-03T00:46:41;4.93;;;1.63;;
10823;SDS011;39116;59.332;18.034;2023-04-03T00:49:03;5.27;;;1.67;;
10823;SDS011;39116;59.332;18.034;2023-04-03T00:51:25;8.20;;;1.80;;
10823;SDS011;39116;59.332;18.034;2023-04-03T00:53:49;6.23;;;1.87;;
10823;SDS011;39116;59.332;18.034;2023-04-03T00:56:16;6.40;;;2.13;;
10823;SDS011;39116;59.332;18.034;2023-04-03T00:58:42;6.93;;;1.80;;
10823;SDS011;39116;59.332;18.034;2023-04-03T01:01:08;6.20;;;2.30;;
10823;SDS011;39116;59.332;18.034;2023-04-03T01:03:34;12.73;;;2.30;;
10823;SDS011;39116;59.332;18.034;2023-04-03T01:05:56;6.43;;;2.40;;
10823;SDS011;39116;59.332;18.034;2023-04-03T01:08:18;9.60;;;1.90;;
10823;SDS011;39116;59.332;18.034;2023-04-03T01:10:40;7.10;;;2.30;;
10823;SDS011;39116;59.332;18.034;2023-04-03T01:13:07;3.70;;;1.97;;
10823;SDS011;39116;59.332;18.034;2023-04-03T01:15:40;6.03;;;2.03;;
10823;SDS011;39116;59.332;18.034;2023-04-03T01:18:02;9.60;;;1.90;;
10823;SDS011;39116;59.332;18.034;2023-04-03T01:23:32;6.27;;;2.20;;
10823;SDS011;39116;59.332;18.034;2023-04-03T01:26:01;8.83;;;2.37;;
10823;SDS011;39116;59.332;18.034;2023-04-03T01:28:26;6.90;;;2.10;;
10823;SDS011;39116;59.332;18.034;2023-04-03T01:30:50;6.37;;;2.10;;
10823;SDS011;39116;59.332;18.034;2023-04-03T01:33:21;6.43;;;1.93;;
10823;SDS011;39116;59.332;18.034;2023-04-03T01:35:43;6.00;;;2.50;;
10823;SDS011;39116;59.332;18.034;2023-04-03T01:38:05;6.43;;;2.20;;
10823;SDS011;39116;59.332;18.034;2023-04-03T01:40:27;6.90;;;1.80;;
10823;SDS011;39116;59.332;18.034;2023-04-03T01:42:49;8.83;;;2.30;;
10823;SDS011;39116;59.332;18.034;2023-04-03T01:45:11;6.77;;;2.07;;
10823;SDS011;39116;59.332;18.034;2023-04-03T01:47:33;4.33;;;1.97;;
10823;SDS011;39116;59.332;18.034;2023-04-03T01:49:57;8.53;;;2.40;;
10823;SDS011;39116;59.332;18.034;2023-04-03T01:52:19;8.33;;;2.00;;
10823;SDS011;39116;59.332;18.034;2023-04-03T01:54:41;5.60;;;1.77;;
10823;SDS011;39116;59.332;18.034;2023-04-03T01:57:02;7.80;;;1.70;;
10823;SDS011;39116;59.332;18.034;2023-04-03T01:59:24;6.97;;;2.10;;
10823;SDS011;39116;59.332;18.034;2023-04-03T02:01:46;6.57;;;2.00;;
10823;SDS011;39116;59.332;18.034;2023-04-03T02:04:08;6.07;;;2.00;;
10823;SDS011;39116;59.332;18.034;2023-04-03T02:06:32;9.90;;;2.40;;
10823;SDS011;39116;59.332;18.034;2023-04-03T02:08:54;6.47;;;1.87;;
10823;SDS011;39116;59.332;18.034;2023-04-03T02:11:15;7.33;;;1.97;;
10823;SDS011;39116;59.332;18.034;2023-04-03T02:13:37;8.13;;;2.10;;
10823;SDS011;39116;59.332;18.034;2023-04-03T02:16:03;6.87;;;1.70;;
10823;SDS011;39116;59.332;18.034;2023-04-03T02:18:27;7.13;;;1.93;;
10823;SDS011;39116;59.332;18.034;2023-04-03T02:20:49;8.10;;;1.83;;
10823;SDS011;39116;59.332;18.034;2023-04-03T02:23:13;6.33;;;1.70;;
10823;SDS011;39116;59.332;18.034;2023-04-03T02:25:35;5.10;;;1.80;;
10823;SDS011;39116;59.332;18.034;2023-04-03T02:27:56;8.70;;;1.80;;
10823;SDS011;39116;59.332;18.034;2023-04-03T02:30:18;5.07;;;1.87;;
10823;SDS011;39116;59.332;18.034;2023-04-03T02:32:40;6.60;;;2.00;;
10823;SDS011;39116;59.332;18.034;2023-04-03T02:35:02;6.93;;;2.30;;
10823;SDS011;39116;59.332;18.034;2023-04-03T02:37:25;8.53;;;1.87;;
10823;SDS011;39116;59.332;18.034;2023-04-03T02:39:48;5.33;;;1.63;;
10823;SDS011;39116;59.332;18.034;2023-04-03T02:42:10;8.00;;;2.13;;
10823;SDS011;39116;59.332;18.034;2023-04-03T02:44:32;5.10;;;1.60;;
10823;SDS011;39116;59.332;18.034;2023-04-03T02:46:54;5.20;;;2.00;;
10823;SDS011;39116;59.332;18.034;2023-04-03T02:49:16;8.77;;;2.47;;
10823;SDS011;39116;59.332;18.034;2023-04-03T02:51:38;6.93;;;1.97;;
10823;SDS011;39116;59.332;18.034;2023-04-03T02:54:00;4.87;;;1.90;;
10823;SDS011;39116;59.332;18.034;2023-04-03T02:56:23;8.00;;;2.13;;
10823;SDS011;39116;59.332;18.034;2023-04-03T02:58:46;7.63;;;2.10;;
10823;SDS011;39116;59.332;18.034;2023-04-03T03:01:09;5.77;;;1.77;;
10823;SDS011;39116;59.332;18.034;2023-04-03T03:03:31;4.87;;;1.80;;
10823;SDS011;39116;59.332;18.034;2023-04-03T03:06:00;10.87;;;2.30;;
10823;SDS011;39116;59.332;18.034;2023-04-03T03:08:22;9.73;;;2.20;;
10823;SDS011;39116;59.332;18.034;2023-04-03T03:10:44;7.47;;;2.37;;
10823;SDS011;39116;59.332;18.034;2023-04-03T03:13:08;9.20;;;1.90;;
10823;SDS011;39116;59.332;18.034;2023-04-03T03:15:30;4.57;;;1.90;;
10823;SDS011;39116;59.332;18.034;2023-04-03T03:17:51;7.60;;;2.20;;
10823;SDS011;39116;59.332;18.034;2023-04-03T03:20:13;5.17;;;2.07;;
10823;SDS011;39116;59.332;18.034;2023-04-03T03:22:36;7.90;;;2.17;;
10823;SDS011;39116;59.332;18.034;2023-04-03T03:24:57;5.13;;;2.00;;
10823;SDS011;39116;59.332;18.034;2023-04-03T03:27:19;7.10;;;2.47;;
10823;SDS011;39116;59.332;18.034;2023-04-03T03:29:43;8.13;;;2.00;;
10823;SDS011;39116;59.332;18.034;2023-04-03T03:32:05;8.83;;;1.83;;
10823;SDS011;39116;59.332;18.034;2023-04-03T03:34:27;7.80;;;2.17;;
10823;SDS011;39116;59.332;18.034;2023-04-03T03:36:48;12.63;;;2.27;;
10823;SDS011;39116;59.332;18.034;2023-04-03T03:39:12;7.87;;;2.00;;
10823;SDS011;39116;59.332;18.034;2023-04-03T03:41:34;7.00;;;2.27;;
10823;SDS011;39116;59.332;18.034;2023-04-03T03:43:56;11.97;;;2.27;;
10823;SDS011;39116;59.332;18.034;2023-04-03T03:46:19;7.13;;;2.20;;
10823;SDS011;39116;59.332;18.034;2023-04-03T03:48:41;9.97;;;2.23;;
10823;SDS011;39116;59.332;18.034;2023-04-03T03:51:03;11.60;;;2.17;;
10823;SDS011;39116;59.332;18.034;2023-04-03T03:53:25;7.63;;;1.97;;
10823;SDS011;39116;59.332;18.034;2023-04-03T03:55:47;9.43;;;1.83;;
10823;SDS011;39116;59.332;18.034;2023-04-03T03:58:09;8.17;;;2.10;;
10823;SDS011;39116;59.332;18.034;2023-04-03T04:00:31;6.57;;;1.70;;
10823;SDS011;39116;59.332;18.034;2023-04-03T04:02:54;7.93;;;1.87;;
10823;SDS011;39116;59.332;18.034;2023-04-03T04:05:16;9.33;;;2.03;;
10823;SDS011;39116;59.332;18.034;2023-04-03T04:07:38;10.13;;;2.37;;
10823;SDS011;39116;59.332;18.034;2023-04-03T04:10:00;6.33;;;2.17;;
10823;SDS011;39116;59.332;18.034;2023-04-03T04:12:22;7.00;;;2.43;;
10823;SDS011;39116;59.332;18.034;2023-04-03T04:14:44;6.73;;;1.80;;
10823;SDS011;39116;59.332;18.034;2023-04-03T04:17:06;11.77;;;2.43;;
10823;SDS011;39116;59.332;18.034;2023-04-03T04:19:30;12.63;;;2.77;;
10823;SDS011;39116;59.332;18.034;2023-04-03T04:21:53;7.73;;;2.17;;
10823;SDS011;39116;59.332;18.034;2023-04-03T04:24:15;10.57;;;2.60;;
10823;SDS011;39116;59.332;18.034;2023-04-03T04:26:37;8.83;;;2.30;;
10823;SDS011;39116;59.332;18.034;2023-04-03T04:28:59;8.07;;;2.50;;
10823;SDS011;39116;59.332;18.034;2023-04-03T04:31:21;9.40;;;2.30;;
10823;SDS011;39116;59.332;18.034;2023-04-03T04:33:43;11.00;;;2.47;;
10823;SDS011;39116;59.332;18.034;2023-04-03T04:36:06;7.90;;;2.00;;
10823;SDS011;39116;59.332;18.034;2023-04-03T04:38:28;10.93;;;2.73;;
10823;SDS011;39116;59.332;18.034;2023-04-03T04:40:50;9.93;;;2.40;;
10823;SDS011;39116;59.332;18.034;2023-04-03T04:43:12;5.60;;;2.27;;
10823;SDS011;39116;59.332;18.034;2023-04-03T04:45:34;9.20;;;2.43;;
10823;SDS011;39116;59.332;18.034;2023-04-03T04:47:56;6.57;;;2.17;;
10823;SDS011;39116;59.332;18.034;2023-04-03T04:50:18;10.77;;;2.10;;
10823;SDS011;39116;59.332;18.034;2023-04-03T04:52:42;6.97;;;2.13;;
10823;SDS011;39116;59.332;18.034;2023-04-03T04:55:04;7.80;;;2.10;;
10823;SDS011;39116;59.332;18.034;2023-04-03T04:57:27;13.77;;;2.30;;
10823;SDS011;39116;59.332;18.034;2023-04-03T04:59:49;10.93;;;2.33;;
10823;SDS011;39116;59.332;18.034;2023-04-03T05:02:11;10.13;;;2.40;;
10823;SDS011;39116;59.332;18.034;2023-04-03T05:04:33;8.43;;;2.00;;
10823;SDS011;39116;59.332;18.034;2023-04-03T05:06:55;8.40;;;1.93;;
10823;SDS011;39116;59.332;18.034;2023-04-03T05:09:18;14.60;;;2.37;;
10823;SDS011;39116;59.332;18.034;2023-04-03T05:11:40;9.30;;;2.37;;
10823;SDS011;39116;59.332;18.034;2023-04-03T05:14:03;9.80;;;2.43;;
10823;SDS011;39116;59.332;18.034;2023-04-03T05:16:26;4.13;;;1.97;;
10823;SDS011;39116;59.332;18.034;2023-04-03T05:18:48;7.97;;;2.33;;
10823;SDS011;39116;59.332;18.034;2023-04-03T05:21:10;8.10;;;2.33;;
10823;SDS011;39116;59.332;18.034;2023-04-03T05:23:32;11.73;;;2.70;;
10823;SDS011;39116;59.332;18.034;2023-04-03T05:25:55;6.77;;;2.47;;
10823;SDS011;39116;59.332;18.034;2023-04-03T05:28:17;10.97;;;2.03;;
10823;SDS011;39116;59.332;18.034;2023-04-03T05:30:39;14.40;;;3.20;;
10823;SDS011;39116;59.332;18.034;2023-04-03T05:33:01;9.60;;;2.53;;
10823;SDS011;39116;59.332;18.034;2023-04-03T05:35:23;11.90;;;2.80;;
10823;SDS011;39116;59.332;18.034;2023-04-03T05:37:45;9.07;;;3.33;;
10823;SDS011;39116;59.332;18.034;2023-04-03T05:40:07;9.27;;;2.80;;
10823;SDS011;39116;59.332;18.034;2023-04-03T05:42:31;9.17;;;2.20;;
10823;SDS011;39116;59.332;18.034;2023-04-03T05:44:54;15.87;;;2.83;;
10823;SDS011;39116;59.332;18.034;2023-04-03T05:47:15;9.13;;;2.70;;
10823;SDS011;39116;59.332;18.034;2023-04-03T05:49:37;10.67;;;2.43;;
10823;SDS011;39116;59.332;18.034;2023-04-03T05:52:01;6.67;;;2.50;;
10823;SDS011;39116;59.332;18.034;2023-04-03T05:54:23;8.67;;;2.93;;
10823;SDS011;39116;59.332;18.034;2023-04-03T05:56:46;4.93;;;2.10;;
10823;SDS011;39116;59.332;18.034;2023-04-03T05:59:10;8.90;;;2.47;;
10823;SDS011;39116;59.332;18.034;2023-04-03T06:01:32;9.20;;;2.33;;
10823;SDS011;39116;59.332;18.034;2023-04-03T06:03:54;8.87;;;2.37;;
10823;SDS011;39116;59.332;18.034;2023-04-03T06:06:16;12.57;;;2.67;;
10823;SDS011;39116;59.332;18.034;2023-04-03T06:08:38;7.37;;;1.93;;
10823;SDS011;39116;59.332;18.034;2023-04-03T06:11:00;11.10;;;2.10;;
10823;SDS011;39116;59.332;18.034;2023-04-03T06:13:23;10.10;;;2.10;;
10823;SDS011;39116;59.332;18.034;2023-04-03T06:15:46;9.10;;;2.33;;
10823;SDS011;39116;59.332;18.034;2023-04-03T06:18:08;5.60;;;2.10;;
10823;SDS011;39116;59.332;18.034;2023-04-03T06:20:30;9.00;;;2.23;;
10823;SDS011;39116;59.332;18.034;2023-04-03T06:22:52;10.57;;;3.10;;
10823;SDS011;39116;59.332;18.034;2023-04-03T06:25:14;11.00;;;2.40;;
10823;SDS011;39116;59.332;18.034;2023-04-03T06:27:37;8.00;;;2.23;;
10823;SDS011;39116;59.332;18.034;2023-04-03T06:29:59;13.13;;;2.50;;
10823;SDS011;39116;59.332;18.034;2023-04-03T06:32:23;8.93;;;2.70;;
10823;SDS011;39116;59.332;18.034;2023-04-03T06:34:45;10.30;;;2.30;;
10823;SDS011;39116;59.332;18.034;2023-04-03T06:37:09;4.70;;;1.93;;
10823;SDS011;39116;59.332;18.034;2023-04-03T06:39:32;8.13;;;2.17;;
10823;SDS011;39116;59.332;18.034;2023-04-03T06:41:55;13.90;;;3.00;;
10823;SDS011;39116;59.332;18.034;2023-04-03T06:44:17;8.07;;;2.43;;
10823;SDS011;39116;59.332;18.034;2023-04-03T06:46:39;10.87;;;2.77;;
10823;SDS011;39116;59.332;18.034;2023-04-03T06:49:02;6.63;;;1.83;;
10823;SDS011;39116;59.332;18.034;2023-04-03T06:51:29;7.67;;;2.43;;
10823;SDS011;39116;59.332;18.034;2023-04-03T06:53:52;9.17;;;2.60;;
10823;SDS011;39116;59.332;18.034;2023-04-03T06:56:15;6.97;;;2.40;;
10823;SDS011;39116;59.332;18.034;2023-04-03T06:58:37;12.07;;;2.60;;
10823;SDS011;39116;59.332;18.034;2023-04-03T07:00:59;14.13;;;2.87;;
10823;SDS011;39116;59.332;18.034;2023-04-03T07:03:21;10.93;;;2.13;;
10823;SDS011;39116;59.332;18.034;2023-04-03T07:05:45;9.43;;;1.80;;
10823;SDS011;39116;59.332;18.034;2023-04-03T07:08:07;8.53;;;2.37;;
10823;SDS011;39116;59.332;18.034;2023-04-03T07:10:29;8.37;;;2.07;;
10823;SDS011;39116;59.332;18.034;2023-04-03T07:12:50;6.43;;;2.60;;
10823;SDS011;39116;59.332;18.034;2023-04-03T07:15:13;6.47;;;2.03;;
10823;SDS011;39116;59.332;18.034;2023-04-03T07:17:35;7.80;;;2.27;;
10823;SDS011;39116;59.332;18.034;2023-04-03T07:19:57;4.40;;;1.90;;
10823;SDS011;39116;59.332;18.034;2023-04-03T07:22:20;8.93;;;2.03;;
10823;SDS011;39116;59.332;18.034;2023-04-03T07:24:42;13.97;;;2.80;;
10823;SDS011;39116;59.332;18.034;2023-04-03T07:27:04;10.60;;;2.50;;
10823;SDS011;39116;59.332;18.034;2023-04-03T07:29:28;5.30;;;1.97;;
10823;SDS011;39116;59.332;18.034;2023-04-03T07:31:50;7.10;;;2.17;;
10823;SDS011;39116;59.332;18.034;2023-04-03T07:34:12;8.43;;;2.40;;
10823;SDS011;39116;59.332;18.034;2023-04-03T07:36:34;10.47;;;2.10;;
10823;SDS011;39116;59.332;18.034;2023-04-03T07:38:58;7.77;;;1.80;;
10823;SDS011;39116;59.332;18.034;2023-04-03T07:41:21;6.13;;;2.03;;
10823;SDS011;39116;59.332;18.034;2023-04-03T07:43:43;8.23;;;2.03;;
10823;SDS011;39116;59.332;18.034;2023-04-03T07:46:05;6.63;;;2.03;;
10823;SDS011;39116;59.332;18.034;2023-04-03T07:48:27;5.87;;;1.90;;
10823;SDS011;39116;59.332;18.034;2023-04-03T07:50:49;4.77;;;1.60;;
10823;SDS011;39116;59.332;18.034;2023-04-03T07:53:11;7.43;;;1.97;;
10823;SDS011;39116;59.332;18.034;2023-04-03T07:55:35;11.50;;;2.00;;
10823;SDS011;39116;59.332;18.034;2023-04-03T07:58:03;7.57;;;1.60;;
10823;SDS011;39116;59.332;18.034;2023-04-03T08:00:24;6.77;;;2.00;;
10823;SDS011;39116;59.332;18.034;2023-04-03T08:02:46;7.40;;;1.83;;
10823;SDS011;39116;59.332;18.034;2023-04-03T08:05:11;12.23;;;1.93;;
10823;SDS011;39116;59.332;18.034;2023-04-03T08:07:33;3.80;;;1.57;;
10823;SDS011;39116;59.332;18.034;2023-04-03T08:09:55;9.10;;;1.80;;
10823;SDS011;39116;59.332;18.034;2023-04-03T08:12:18;7.60;;;1.63;;
10823;SDS011;39116;59.332;18.034;2023-04-03T08:14:40;6.90;;;2.30;;
10823;SDS011;39116;59.332;18.034;2023-04-03T08:17:02;6.70;;;2.30;;
10823;SDS011;39116;59.332;18.034;2023-04-03T08:19:25;7.23;;;2.00;;
10823;SDS011;39116;59.332;18.034;2023-04-03T08:21:46;6.90;;;2.60;;
10823;SDS011;39116;59.332;18.034;2023-04-03T08:24:08;8.20;;;2.13;;
10823;SDS011;39116;59.332;18.034;2023-04-03T08:26:30;7.13;;;1.80;;
10823;SDS011;39116;59.332;18.034;2023-04-03T08:28:54;4.73;;;1.57;;
10823;SDS011;39116;59.332;18.034;2023-04-03T08:31:17;9.33;;;1.90;;
10823;SDS011;39116;59.332;18.034;2023-04-03T08:33:40;6.77;;;1.80;;
10823;SDS011;39116;59.332;18.034;2023-04-03T08:36:02;10.43;;;2.17;;
10823;SDS011;39116;59.332;18.034;2023-04-03T08:38:26;9.77;;;1.70;;
10823;SDS011;39116;59.332;18.034;2023-04-03T08:40:58;5.37;;;1.77;;
10823;SDS011;39116;59.332;18.034;2023-04-03T08:43:29;5.80;;;1.80;;
10823;SDS011;39116;59.332;18.034;2023-04-03T08:45:59;6.77;;;1.80;;
10823;SDS011;39116;59.332;18.034;2023-04-03T08:48:26;5.83;;;1.50;;
10823;SDS011;39116;59.332;18.034;2023-04-03T08:50:51;4.20;;;1.73;;
10823;SDS011;39116;59.332;18.034;2023-04-03T08:53:17;6.33;;;2.23;;
10823;SDS011;39116;59.332;18.034;2023-04-03T08:55:43;5.13;;;1.93;;
10823;SDS011;39116;59.332;18.034;2023-04-03T08:58:07;7.10;;;1.93;;
10823;SDS011;39116;59.332;18.034;2023-04-03T09:00:34;7.60;;;2.00;;
10823;SDS011;39116;59.332;18.034;2023-04-03T09:03:04;9.27;;;1.90;;
10823;SDS011;39116;59.332;18.034;2023-04-03T09:05:29;11.50;;;3.17;;
10823;SDS011;39116;59.332;18.034;2023-04-03T09:08:04;11.30;;;2.27;;
10823;SDS011;39116;59.332;18.034;2023-04-03T09:10:34;5.50;;;1.73;;
10823;SDS011;39116;59.332;18.034;2023-04-03T09:13:02;3.80;;;1.60;;
10823;SDS011;39116;59.332;18.034;2023-04-03T09:15:28;4.90;;;1.30;;
10823;SDS011;39116;59.332;18.034;2023-04-03T09:17:57;5.20;;;1.60;;
10823;SDS011;39116;59.332;18.034;2023-04-03T09:20:26;7.07;;;1.47;;
10823;SDS011;39116;59.332;18.034;2023-04-03T09:23:00;6.70;;;1.90;;
10823;SDS011;39116;59.332;18.034;2023-04-03T09:25:23;7.20;;;1.80;;
10823;SDS011;39116;59.332;18.034;2023-04-03T09:27:47;12.10;;;2.57;;
10823;SDS011;39116;59.332;18.034;2023-04-03T09:30:12;6.73;;;1.80;;
10823;SDS011;39116;59.332;18.034;2023-04-03T09:32:36;11.07;;;1.90;;
10823;SDS011;39116;59.332;18.034;2023-04-03T09:34:59;5.67;;;1.70;;
10823;SDS011;39116;59.332;18.034;2023-04-03T09:37:35;8.57;;;2.13;;
10823;SDS011;39116;59.332;18.034;2023-04-03T09:40:00;9.50;;;1.70;;
10823;SDS011;39116;59.332;18.034;2023-04-03T09:42:23;5.00;;;1.73;;
10823;SDS011;39116;59.332;18.034;2023-04-03T09:44:53;7.53;;;2.30;;
10823;SDS011;39116;59.332;18.034;2023-04-03T09:47:17;6.27;;;1.70;;
10823;SDS011;39116;59.332;18.034;2023-04-03T09:49:40;6.73;;;2.07;;
10823;SDS011;39116;59.332;18.034;2023-04-03T09:52:12;8.47;;;2.30;;
10823;SDS011;39116;59.332;18.034;2023-04-03T09:54:42;4.80;;;1.57;;
10823;SDS011;39116;59.332;18.034;2023-04-03T09:57:06;9.80;;;1.70;;
10823;SDS011;39116;59.332;18.034;2023-04-03T09:59:31;7.00;;;1.70;;
10823;SDS011;39116;59.332;18.034;2023-04-03T10:01:57;6.40;;;1.70;;
10823;SDS011;39116;59.332;18.034;2023-04-03T10:04:21;6.00;;;2.57;;
10823;SDS011;39116;59.332;18.034;2023-04-03T10:06:43;7.70;;;2.03;;
10823;SDS011;39116;59.332;18.034;2023-04-03T10:09:14;8.07;;;1.97;;
10823;SDS011;39116;59.332;18.034;2023-04-03T10:11:43;4.20;;;1.80;;
10823;SDS011;39116;59.332;18.034;2023-04-03T10:14:20;10.80;;;2.60;;
10823;SDS011;39116;59.332;18.034;2023-04-03T10:16:43;8.10;;;2.30;;
10823;SDS011;39116;59.332;18.034;2023-04-03T10:19:14;8.37;;;2.43;;
10823;SDS011;39116;59.332;18.034;2023-04-03T10:21:47;4.93;;;1.97;;
10823;SDS011;39116;59.332;18.034;2023-04-03T10:24:17;5.53;;;1.87;;
10823;SDS011;39116;59.332;18.034;2023-04-03T10:26:48;11.43;;;2.10;;
10823;SDS011;39116;59.332;18.034;2023-04-03T10:29:21;6.87;;;1.60;;
10823;SDS011;39116;59.332;18.034;2023-04-03T10:31:53;6.93;;;2.03;;
10823;SDS011;39116;59.332;18.034;2023-04-03T10:34:24;7.60;;;2.00;;
10823;SDS011;39116;59.332;18.034;2023-04-03T10:36:50;5.03;;;1.90;;
10823;SDS011;39116;59.332;18.034;2023-04-03T10:39:23;7.97;;;1.70;;
10823;SDS011;39116;59.332;18.034;2023-04-03T10:41:56;6.30;;;1.80;;
10823;SDS011;39116;59.332;18.034;2023-04-03T10:44:26;5.73;;;2.13;;
10823;SDS011;39116;59.332;18.034;2023-04-03T10:46:58;5.17;;;1.40;;
10823;SDS011;39116;59.332;18.034;2023-04-03T10:49:32;8.47;;;2.20;;
10823;SDS011;39116;59.332;18.034;2023-04-03T10:52:07;7.27;;;1.93;;
10823;SDS011;39116;59.332;18.034;2023-04-03T10:54:39;6.93;;;2.47;;
10823;SDS011;39116;59.332;18.034;2023-04-03T10:57:08;6.90;;;1.60;;
10823;SDS011;39116;59.332;18.034;2023-04-03T10:59:32;3.83;;;1.73;;
10823;SDS011;39116;59.332;18.034;2023-04-03T11:01:58;3.83;;;1.93;;
10823;SDS011;39116;59.332;18.034;2023-04-03T11:04:23;12.53;;;2.20;;
10823;SDS011;39116;59.332;18.034;2023-04-03T11:06:49;5.70;;;1.80;;
10823;SDS011;39116;59.332;18.034;2023-04-03T11:09:19;5.87;;;1.60;;
10823;SDS011;39116;59.332;18.034;2023-04-03T11:11:45;5.00;;;1.13;;
10823;SDS011;39116;59.332;18.034;2023-04-03T11:14:11;5.30;;;1.53;;
10823;SDS011;39116;59.332;18.034;2023-04-03T11:16:39;4.43;;;1.40;;
10823;SDS011;39116;59.332;18.034;2023-04-03T11:19:09;5.10;;;2.03;;
10823;SDS011;39116;59.332;18.034;2023-04-03T11:21:42;4.33;;;1.30;;
10823;SDS011;39116;59.332;18.034;2023-04-03T11:24:11;2.93;;;1.17;;
10823;SDS011;39116;59.332;18.034;2023-04-03T11:26:41;6.17;;;1.40;;
10823;SDS011;39116;59.332;18.034;2023-04-03T11:29:05;3.40;;;1.27;;
10823;SDS011;39116;59.332;18.034;2023-04-03T11:31:41;4.23;;;1.70;;
10823;SDS011;39116;59.332;18.034;2023-04-03T11:34:23;4.27;;;1.40;;
10823;SDS011;39116;59.332;18.034;2023-04-03T11:36:55;4.10;;;1.63;;
10823;SDS011;39116;59.332;18.034;2023-04-03T11:39:21;4.70;;;1.50;;
10823;SDS011;39116;59.332;18.034;2023-04-03T11:41:47;4.03;;;1.43;;
10823;SDS011;39116;59.332;18.034;2023-04-03T11:44:25;2.20;;;1.10;;
10823;SDS011;39116;59.332;18.034;2023-04-03T11:46:58;2.93;;;1.10;;
10823;SDS011;39116;59.332;18.034;2023-04-03T11:58:17;6.80;;;1.30;;
10823;SDS011;39116;59.332;18.034;2023-04-03T12:00:50;2.73;;;1.20;;
10823;SDS011;39116;59.332;18.034;2023-04-03T12:03:35;5.67;;;1.30;;
10823;SDS011;39116;59.332;18.034;2023-04-03T12:12:25;5.33;;;1.33;;
10823;SDS011;39116;59.332;18.034;2023-04-03T12:14:50;2.80;;;1.07;;
10823;SDS011;39116;59.332;18.034;2023-04-03T12:17:17;1.60;;;1.03;;
10823;SDS011;39116;59.332;18.034;2023-04-03T12:19:44;2.97;;;1.53;;
10823;SDS011;39116;59.332;18.034;2023-04-03T12:22:09;6.00;;;1.10;;
10823;SDS011;39116;59.332;18.034;2023-04-03T12:24:41;2.37;;;0.80;;
10823;SDS011;39116;59.332;18.034;2023-04-03T12:27:17;4.87;;;1.00;;
10823;SDS011;39116;59.332;18.034;2023-04-03T12:29:46;2.90;;;0.90;;
10823;SDS011;39116;59.332;18.034;2023-04-03T12:32:15;3.30;;;1.20;;
10823;SDS011;39116;59.332;18.034;2023-04-03T12:34:49;2.57;;;1.10;;
10823;SDS011;39116;59.332;18.034;2023-04-03T12:37:21;2.50;;;0.87;;
10823;SDS011;39116;59.332;18.034;2023-04-03T12:40:03;2.93;;;1.23;;
10823;SDS011;39116;59.332;18.034;2023-04-03T12:42:35;4.57;;;1.17;;
10823;SDS011;39116;59.332;18.034;2023-04-03T12:45:14;3.07;;;1.17;;
10823;SDS011;39116;59.332;18.034;2023-04-03T12:47:40;4.80;;;1.00;;
10823;SDS011;39116;59.332;18.034;2023-04-03T12:50:13;5.37;;;1.13;;
10823;SDS011;39116;59.332;18.034;2023-04-03T12:52:42;5.27;;;1.00;;
10823;SDS011;39116;59.332;18.034;2023-04-03T12:55:14;2.00;;;0.90;;
10823;SDS011;39116;59.332;18.034;2023-04-03T12:57:38;2.23;;;0.90;;
10823;SDS011;39116;59.332;18.034;2023-04-03T13:00:01;3.37;;;1.00;;
10823;SDS011;39116;59.332;18.034;2023-04-03T13:02:43;2.53;;;0.70;;
10823;SDS011;39116;59.332;18.034;2023-04-03T13:05:07;7.32;;;1.13;;
10823;SDS011;39116;59.332;18.034;2023-04-03T13:07:36;2.13;;;0.90;;
10823;SDS011;39116;59.332;18.034;2023-04-03T13:10:04;4.40;;;0.87;;
10823;SDS011;39116;59.332;18.034;2023-04-03T13:12:46;2.92;;;0.98;;
10823;SDS011;39116;59.332;18.034;2023-04-03T13:15:12;4.70;;;1.03;;
10823;SDS011;39116;59.332;18.034;2023-04-03T13:17:38;2.28;;;0.90;;
10823;SDS011;39116;59.332;18.034;2023-04-03T13:20:12;3.90;;;1.00;;
10823;SDS011;39116;59.332;18.034;2023-04-03T13:22:39;4.38;;;1.25;;
10823;SDS011;39116;59.332;18.034;2023-04-03T13:25:09;3.80;;;1.10;;
10823;SDS011;39116;59.332;18.034;2023-04-03T13:27:34;3.45;;;1.20;;
10823;SDS011;39116;59.332;18.034;2023-04-03T13:29:58;2.80;;;1.27;;
10823;SDS011;39116;59.332;18.034;2023-04-03T13:32:23;3.45;;;1.17;;
10823;SDS011;39116;59.332;18.034;2023-04-03T13:34:47;3.58;;;1.10;;
10823;SDS011;39116;59.332;18.034;2023-04-03T13:37:19;8.20;;;1.30;;
10823;SDS011;39116;59.332;18.034;2023-04-03T13:39:43;3.58;;;1.40;;
10823;SDS011;39116;59.332;18.034;2023-04-03T13:42:15;4.05;;;1.20;;
10823;SDS011;39116;59.332;18.034;2023-04-03T13:44:43;3.97;;;1.40;;
10823;SDS011;39116;59.332;18.034;2023-04-03T13:47:16;2.55;;;1.25;;
10823;SDS011;39116;59.332;18.034;2023-04-03T13:49:41;5.07;;;1.60;;
10823;SDS011;39116;59.332;18.034;2023-04-03T13:52:17;3.50;;;1.52;;
10823;SDS011;39116;59.332;18.034;2023-04-03T13:54:45;4.88;;;1.67;;
10823;SDS011;39116;59.332;18.034;2023-04-03T13:57:11;2.83;;;1.42;;
10823;SDS011;39116;59.332;18.034;2023-04-03T13:59:35;4.97;;;1.30;;
10823;SDS011;39116;59.332;18.034;2023-04-03T14:02:09;7.22;;;1.33;;
10823;SDS011;39116;59.332;18.034;2023-04-03T14:04:46;4.10;;;1.08;;
10823;SDS011;39116;59.332;18.034;2023-04-03T14:07:13;5.32;;;1.70;;
10823;SDS011;39116;59.332;18.034;2023-04-03T14:09:38;7.20;;;1.08;;
10823;SDS011;39116;59.332;18.034;2023-04-03T14:12:02;4.07;;;1.52;;
10823;SDS011;39116;59.332;18.034;2023-04-03T14:14:29;6.95;;;1.10;;
10823;SDS011;39116;59.332;18.034;2023-04-03T14:16:58;5.07;;;1.60;;
10823;SDS011;39116;59.332;18.034;2023-04-03T14:19:23;3.17;;;1.33;;
10823;SDS011;39116;59.332;18.034;2023-04-03T14:21:47;5.50;;;1.08;;
10823;SDS011;39116;59.332;18.034;2023-04-03T14:24:10;5.43;;;1.30;;
10823;SDS011;39116;59.332;18.034;2023-04-03T14:26:33;3.33;;;1.27;;
10823;SDS011;39116;59.332;18.034;2023-04-03T14:28:55;4.18;;;1.40;;
10823;SDS011;39116;59.332;18.034;2023-04-03T14:31:17;5.45;;;1.17;;
10823;SDS011;39116;59.332;18.034;2023-04-03T14:33:41;6.03;;;1.67;;
10823;SDS011;39116;59.332;18.034;2023-04-03T14:36:05;11.55;;;1.77;;
10823;SDS011;39116;59.332;18.034;2023-04-03T14:38:35;2.28;;;1.20;;